createdAt,value
2018-01-08T00:00:32.214Z,6.62
2018-01-08T00:02:59.725Z,6.75
2018-01-08T00:05:27.254Z,6.62
2018-01-08T00:07:54.779Z,6.65
2018-01-08T00:10:22.320Z,6.58
2018-01-08T00:12:49.858Z,6.66
2018-01-08T00:15:17.403Z,6.66
2018-01-08T00:17:44.985Z,6.70
2018-01-08T00:20:12.504Z,6.69
2018-01-08T00:22:40.040Z,6.69
2018-01-08T00:25:07.569Z,6.71
2018-01-08T00:27:35.100Z,6.68
2018-01-08T00:30:02.644Z,6.61
2018-01-08T00:32:30.209Z,6.60
2018-01-08T00:34:57.741Z,6.65
2018-01-08T00:37:25.259Z,6.63
2018-01-08T00:39:52.909Z,6.71
2018-01-08T00:42:20.464Z,6.66
2018-01-08T00:44:48.009Z,6.69
2018-01-08T00:47:15.555Z,6.68
2018-01-08T00:49:43.069Z,6.67
2018-01-08T00:52:10.601Z,6.67
2018-01-08T00:54:38.136Z,6.66
2018-01-08T00:57:05.659Z,6.55
2018-01-08T00:59:33.185Z,6.61
2018-01-08T01:02:00.749Z,6.70
2018-01-08T01:04:28.306Z,6.62
2018-01-08T01:06:55.835Z,6.53
2018-01-08T01:09:23.364Z,6.51
2018-01-08T01:11:50.927Z,6.58
2018-01-08T01:14:18.469Z,6.57
2018-01-08T01:16:46.000Z,6.44
2018-01-08T01:19:13.520Z,6.53
2018-01-08T01:21:41.080Z,6.46
2018-01-08T01:24:08.590Z,6.40
2018-01-08T01:26:36.136Z,6.40
2018-01-08T01:29:03.669Z,6.25
2018-01-08T01:31:31.179Z,6.10
2018-01-08T01:33:58.690Z,6.04
2018-01-08T01:36:26.216Z,6.03
2018-01-08T01:38:53.755Z,6.10
2018-01-08T01:41:21.268Z,5.99
2018-01-08T01:43:48.796Z,6.05
2018-01-08T01:46:16.335Z,5.99
2018-01-08T01:48:43.866Z,5.85
2018-01-08T01:51:11.380Z,5.83
2018-01-08T01:53:38.895Z,5.84
2018-01-08T01:56:06.406Z,5.86
2018-01-08T01:58:33.959Z,5.85
2018-01-08T02:01:01.472Z,5.79
2018-01-08T02:03:29.001Z,5.65
2018-01-08T02:05:56.512Z,5.58
2018-01-08T02:08:24.020Z,5.53
2018-01-08T02:10:51.550Z,5.50
2018-01-08T02:13:19.066Z,5.27
2018-01-08T02:15:46.599Z,5.28
2018-01-08T02:18:14.118Z,5.47
2018-01-08T02:20:41.659Z,5.57
2018-01-08T02:23:09.181Z,5.44
2018-01-08T02:25:36.715Z,5.43
2018-01-08T02:28:04.341Z,5.39
2018-01-08T02:30:31.861Z,5.37
2018-01-08T02:32:59.409Z,5.43
2018-01-08T02:35:26.934Z,5.42
2018-01-08T02:37:54.445Z,5.41
2018-01-08T02:40:21.965Z,5.37
2018-01-08T02:42:49.488Z,5.38
2018-01-08T02:45:17.011Z,5.40
2018-01-08T02:47:44.664Z,5.48
2018-01-08T02:50:12.199Z,5.43
2018-01-08T02:52:39.785Z,5.43
2018-01-08T02:55:07.300Z,5.40
2018-01-08T02:57:34.879Z,5.36
2018-01-08T03:00:02.376Z,5.32
2018-01-08T03:02:29.902Z,5.31
2018-01-08T03:04:58.241Z,5.25
2018-01-08T03:07:25.746Z,5.24
2018-01-08T03:09:53.275Z,5.31
2018-01-08T03:12:20.777Z,5.35
2018-01-08T03:14:48.329Z,5.35
2018-01-08T03:17:15.849Z,5.26
2018-01-08T03:19:43.396Z,5.17
2018-01-08T03:22:10.945Z,5.11
2018-01-08T03:24:38.501Z,5.05
2018-01-08T03:27:06.040Z,5.04
2018-01-08T03:29:33.614Z,5.01
2018-01-08T03:32:01.164Z,5.05
2018-01-08T03:34:28.697Z,5.04
2018-01-08T03:36:56.231Z,5.03
2018-01-08T03:39:23.770Z,5.05
2018-01-08T03:48:37.386Z,4.63
2018-01-08T03:51:04.920Z,4.55
2018-01-08T03:53:32.449Z,4.60
2018-01-08T03:55:59.969Z,4.65
2018-01-08T03:58:27.480Z,4.70
2018-01-08T04:00:55.001Z,4.73
2018-01-08T04:03:22.514Z,4.79
2018-01-08T04:05:50.051Z,4.80
2018-01-08T04:08:17.592Z,4.77
2018-01-08T04:10:45.095Z,4.80
2018-01-08T04:13:12.619Z,4.86
2018-01-08T04:15:40.166Z,4.85
2018-01-08T04:18:07.706Z,4.81
2018-01-08T04:20:35.210Z,4.75
2018-01-08T04:23:02.726Z,4.77
2018-01-08T04:25:30.231Z,4.81
2018-01-08T04:27:57.769Z,4.87
2018-01-08T04:30:25.302Z,4.98
2018-01-08T04:32:52.820Z,5.12
2018-01-08T04:35:20.341Z,4.90
2018-01-08T04:37:47.985Z,4.72
2018-01-08T04:40:15.517Z,4.67
2018-01-08T04:42:43.067Z,4.69
2018-01-08T04:45:10.597Z,4.85
2018-01-08T04:47:38.160Z,4.91
2018-01-08T04:50:05.700Z,4.95
2018-01-08T04:52:33.204Z,5.00
2018-01-08T04:55:00.726Z,4.93
2018-01-08T04:57:28.255Z,5.06
2018-01-08T04:59:55.781Z,5.09
2018-01-08T05:02:23.321Z,5.07
2018-01-08T05:04:50.849Z,5.09
2018-01-08T05:07:18.377Z,5.07
2018-01-08T05:09:45.920Z,4.99
2018-01-08T05:12:13.460Z,4.89
2018-01-08T05:14:41.001Z,4.85
2018-01-08T05:17:08.527Z,4.81
2018-01-08T05:19:36.080Z,4.79
2018-01-08T05:22:03.601Z,4.77
2018-01-08T05:24:31.158Z,4.73
2018-01-08T05:26:58.714Z,4.70
2018-01-08T05:29:26.246Z,4.67
2018-01-08T05:31:53.776Z,4.71
2018-01-08T05:34:21.294Z,4.65
2018-01-08T05:36:48.820Z,4.65
2018-01-08T05:39:16.384Z,4.61
2018-01-08T05:41:43.920Z,4.58
2018-01-08T05:44:11.451Z,4.45
2018-01-08T05:46:39.015Z,4.40
2018-01-08T05:49:06.547Z,4.40
2018-01-08T05:51:34.093Z,4.44
2018-01-08T05:54:01.626Z,4.36
2018-01-08T05:56:29.164Z,4.31
2018-01-08T05:58:56.715Z,4.28
2018-01-08T06:01:24.440Z,4.24
2018-01-08T06:03:51.952Z,4.22
2018-01-08T06:06:19.476Z,4.25
2018-01-08T06:08:47.140Z,4.14
2018-01-08T06:11:14.674Z,4.22
2018-01-08T06:13:42.212Z,4.24
2018-01-08T06:16:09.830Z,4.15
2018-01-08T06:18:37.374Z,4.10
2018-01-08T06:21:04.891Z,4.09
2018-01-08T06:23:32.425Z,4.08
2018-01-08T06:25:59.962Z,4.05
2018-01-08T06:28:27.514Z,4.06
2018-01-08T06:30:55.182Z,4.16
2018-01-08T06:33:22.700Z,4.06
2018-01-08T06:35:50.241Z,3.97
2018-01-08T06:38:17.786Z,3.91
2018-01-08T06:40:45.296Z,3.83
2018-01-08T06:43:12.833Z,3.81
2018-01-08T06:45:40.372Z,3.83
2018-01-08T06:48:07.918Z,3.94
2018-01-08T06:50:35.445Z,3.85
2018-01-08T06:53:02.980Z,3.87
2018-01-08T06:55:30.505Z,3.78
2018-01-08T06:57:58.236Z,3.34
2018-01-08T07:00:25.756Z,3.15
2018-01-08T07:02:53.280Z,3.28
2018-01-08T07:05:20.805Z,3.41
2018-01-08T07:07:48.347Z,3.48
2018-01-08T07:10:15.900Z,3.52
2018-01-08T07:12:43.412Z,3.59
2018-01-08T07:15:10.936Z,3.50
2018-01-08T07:17:38.501Z,3.23
2018-01-08T07:20:06.040Z,3.31
2018-01-08T07:22:33.576Z,3.45
2018-01-08T07:25:01.181Z,3.61
2018-01-08T07:27:28.702Z,3.50
2018-01-08T07:29:56.226Z,3.32
2018-01-08T07:32:23.751Z,3.29
2018-01-08T07:34:51.280Z,3.40
2018-01-08T07:37:18.796Z,3.53
2018-01-08T07:39:46.325Z,3.60
2018-01-08T07:42:13.856Z,3.63
2018-01-08T07:44:41.377Z,3.63
2018-01-08T07:47:08.892Z,3.63
2018-01-08T07:49:36.426Z,3.66
2018-01-08T07:52:03.963Z,3.72
2018-01-08T07:54:31.517Z,3.80
2018-01-08T07:56:59.050Z,3.77
2018-01-08T07:59:26.552Z,3.74
2018-01-08T08:01:54.085Z,3.80
2018-01-08T08:04:21.595Z,3.96
2018-01-08T08:06:49.182Z,4.07
2018-01-08T08:09:16.693Z,4.18
2018-01-08T08:11:44.236Z,4.24
2018-01-08T08:14:11.780Z,4.36
2018-01-08T08:16:39.621Z,4.49
2018-01-08T08:19:07.162Z,4.67
2018-01-08T08:21:34.688Z,4.55
2018-01-08T08:24:02.249Z,4.79
2018-01-08T08:26:29.775Z,4.59
2018-01-08T08:28:57.341Z,4.75
2018-01-08T08:31:24.857Z,4.83
2018-01-08T08:33:52.372Z,4.77
2018-01-08T08:36:19.895Z,4.72
2018-01-08T08:38:47.437Z,4.78
2018-01-08T08:41:14.972Z,4.89
2018-01-08T08:43:42.537Z,5.02
2018-01-08T08:46:10.060Z,5.11
2018-01-08T08:48:37.587Z,5.28
2018-01-08T08:51:05.122Z,5.27
2018-01-08T08:53:32.655Z,5.34
2018-01-08T08:56:00.198Z,5.43
2018-01-08T08:58:27.723Z,5.68
2018-01-08T09:00:55.250Z,5.76
2018-01-08T09:03:22.788Z,5.78
2018-01-08T09:05:50.343Z,6.00
2018-01-08T09:08:17.878Z,6.03
2018-01-08T09:10:45.431Z,5.99
2018-01-08T09:13:13.011Z,6.03
2018-01-08T09:15:40.538Z,6.11
2018-01-08T09:18:08.042Z,6.22
2018-01-08T09:20:35.676Z,6.34
2018-01-08T09:23:03.191Z,6.46
2018-01-08T09:25:30.752Z,6.46
2018-01-08T09:27:58.312Z,6.46
2018-01-08T09:30:25.840Z,6.54
2018-01-08T09:32:53.570Z,6.59
2018-01-08T09:35:21.212Z,6.63
2018-01-08T09:37:48.738Z,6.78
2018-01-08T09:40:16.331Z,6.92
2018-01-08T09:42:43.867Z,6.90
2018-01-08T09:45:11.412Z,6.89
2018-01-08T09:47:38.932Z,6.88
2018-01-08T09:50:06.553Z,6.90
2018-01-08T09:52:34.092Z,6.92
2018-01-08T09:55:01.630Z,6.95
2018-01-08T09:57:29.165Z,6.94
2018-01-08T09:59:56.811Z,6.98
2018-01-08T10:02:23.842Z,7.06
2018-01-08T10:05:03.167Z,7.01
2018-01-08T10:07:42.535Z,6.90
2018-01-08T10:10:22.073Z,6.91
2018-01-08T10:13:01.563Z,6.89
2018-01-08T10:15:41.029Z,6.85
2018-01-08T10:18:20.535Z,6.82
2018-01-08T10:20:48.086Z,6.91
2018-01-08T10:23:15.620Z,7.01
2018-01-08T10:25:43.148Z,6.94
2018-01-08T10:28:10.682Z,6.91
2018-01-08T10:30:38.246Z,6.95
2018-01-08T10:33:05.770Z,7.05
2018-01-08T10:35:33.298Z,6.99
2018-01-08T10:38:00.806Z,7.05
2018-01-08T10:40:28.330Z,7.14
2018-01-08T10:43:01.441Z,7.26
2018-01-08T10:45:34.693Z,7.13
2018-01-08T10:48:07.856Z,7.11
2018-01-08T10:50:40.927Z,7.15
2018-01-08T10:56:09.630Z,7.11
2018-01-08T10:58:37.154Z,7.17
2018-01-08T11:01:10.157Z,7.28
2018-01-08T11:03:43.271Z,7.04
2018-01-08T11:06:10.805Z,7.31
2018-01-08T11:08:38.351Z,7.17
2018-01-08T11:11:05.917Z,7.15
2018-01-08T11:13:33.484Z,7.39
2018-01-08T11:16:01.113Z,7.77
2018-01-08T11:18:28.646Z,7.28
2018-01-08T11:20:56.182Z,7.24
2018-01-08T11:23:23.718Z,7.20
2018-01-08T11:25:51.241Z,7.35
2018-01-08T11:28:18.807Z,7.36
2018-01-08T11:30:46.361Z,7.36
2018-01-08T11:33:13.883Z,7.35
2018-01-08T11:35:41.403Z,7.39
2018-01-08T11:38:08.946Z,7.44
2018-01-08T11:40:36.492Z,7.41
2018-01-08T11:43:04.016Z,7.47
2018-01-08T11:45:31.564Z,7.51
2018-01-08T11:47:59.126Z,7.57
2018-01-08T11:50:26.652Z,7.52
2018-01-08T11:52:54.225Z,7.44
2018-01-08T11:55:21.735Z,7.52
2018-01-08T11:57:49.248Z,7.69
2018-01-08T12:00:16.822Z,7.65
2018-01-08T12:02:44.374Z,7.52
2018-01-08T12:05:11.998Z,7.51
2018-01-08T12:07:39.601Z,7.73
2018-01-08T12:10:07.138Z,7.67
2018-01-08T12:12:34.732Z,7.82
2018-01-08T12:15:02.263Z,7.92
2018-01-08T12:17:29.803Z,7.94
2018-01-08T12:19:57.320Z,8.74
2018-01-08T12:22:24.843Z,9.08
2018-01-08T12:24:52.371Z,9.08
2018-01-08T12:27:19.913Z,9.31
2018-01-08T12:29:47.478Z,9.25
2018-01-08T12:32:15.031Z,9.20
2018-01-08T12:34:42.555Z,8.95
2018-01-08T12:37:10.088Z,8.29
2018-01-08T12:39:37.627Z,8.17
2018-01-08T12:42:05.181Z,8.10
2018-01-08T12:44:32.723Z,8.24
2018-01-08T12:47:00.261Z,8.40
2018-01-08T12:49:27.816Z,8.25
2018-01-08T12:51:55.353Z,8.11
2018-01-08T12:54:22.967Z,8.21
2018-01-08T12:56:50.635Z,8.45
2018-01-08T12:59:18.180Z,8.54
2018-01-08T13:01:45.721Z,8.43
2018-01-08T13:04:13.279Z,8.14
2018-01-08T13:06:40.825Z,8.25
2018-01-08T13:09:08.446Z,8.23
2018-01-08T13:11:36.085Z,8.29
2018-01-08T13:14:03.602Z,8.29
2018-01-08T13:16:31.166Z,8.07
2018-01-08T13:18:58.732Z,7.95
2018-01-08T13:21:26.271Z,8.05
2018-01-08T13:23:53.841Z,8.20
2018-01-08T13:26:21.387Z,8.21
2018-01-08T13:28:48.937Z,8.12
2018-01-08T13:31:16.501Z,8.13
2018-01-08T13:33:44.073Z,8.03
2018-01-08T13:36:11.613Z,7.92
2018-01-08T13:38:39.133Z,7.79
2018-01-08T13:41:06.706Z,7.85
2018-01-08T13:43:34.227Z,7.95
2018-01-08T13:46:01.767Z,7.69
2018-01-08T13:48:29.315Z,7.77
2018-01-08T13:50:56.936Z,7.71
2018-01-08T13:53:24.612Z,7.74
2018-01-08T13:55:52.171Z,7.63
2018-01-08T13:58:19.706Z,7.66
2018-01-08T14:00:47.284Z,7.46
2018-01-08T14:03:14.822Z,7.33
2018-01-08T14:05:42.383Z,7.32
2018-01-08T14:08:09.894Z,7.19
2018-01-08T14:10:37.451Z,7.16
2018-01-08T14:13:04.972Z,7.13
2018-01-08T14:15:32.522Z,7.15
2018-01-08T14:18:00.083Z,7.08
2018-01-08T14:20:27.628Z,7.10
2018-01-08T14:22:55.192Z,7.01
2018-01-08T14:25:22.761Z,7.03
2018-01-08T14:27:50.287Z,7.09
2018-01-08T14:30:17.832Z,7.03
2018-01-08T14:32:45.398Z,6.97
2018-01-08T14:35:13.102Z,6.98
2018-01-08T14:37:40.771Z,6.99
2018-01-08T14:40:08.430Z,7.00
2018-01-08T14:42:35.958Z,6.99
2018-01-08T14:45:03.488Z,6.98
2018-01-08T14:47:31.073Z,6.94
2018-01-08T14:49:58.607Z,6.91
2018-01-08T14:52:26.136Z,6.96
2018-01-08T14:54:53.657Z,6.94
2018-01-08T14:57:21.182Z,6.93
2018-01-08T14:59:48.727Z,7.00
2018-01-08T15:02:16.582Z,6.85
2018-01-08T15:04:44.116Z,6.78
2018-01-08T15:07:11.696Z,6.82
2018-01-08T15:09:39.251Z,6.75
2018-01-08T15:12:06.812Z,6.74
2018-01-08T15:14:34.373Z,6.70
2018-01-08T15:17:01.914Z,6.71
2018-01-08T15:19:29.456Z,6.68
2018-01-08T15:21:57.042Z,6.66
2018-01-08T15:24:24.586Z,6.66
2018-01-08T15:26:52.124Z,6.63
2018-01-08T15:29:19.657Z,6.60
2018-01-08T15:31:47.192Z,6.61
2018-01-08T15:34:14.724Z,6.65
2018-01-08T15:36:42.302Z,6.59
2018-01-08T15:39:09.847Z,6.62
2018-01-08T15:41:37.383Z,6.58
2018-01-08T15:44:05.026Z,6.60
2018-01-08T15:46:32.562Z,6.69
2018-01-08T15:49:00.099Z,6.55
2018-01-08T15:51:27.629Z,6.56
2018-01-08T15:53:55.182Z,6.53
2018-01-08T15:56:22.713Z,6.57
2018-01-08T15:58:50.429Z,6.55
2018-01-08T16:01:18.050Z,6.58
2018-01-08T16:03:45.572Z,6.52
2018-01-08T16:06:13.133Z,6.48
2018-01-08T16:08:40.683Z,6.48
2018-01-08T16:11:08.206Z,6.56
2018-01-08T16:13:35.761Z,6.48
2018-01-08T16:16:03.863Z,6.45
2018-01-08T16:18:31.393Z,6.44
2018-01-08T16:20:58.923Z,6.45
2018-01-08T16:23:26.467Z,6.39
2018-01-08T16:25:54.002Z,6.38
2018-01-08T16:28:21.559Z,6.38
2018-01-08T16:30:49.216Z,6.31
2018-01-08T16:33:16.787Z,6.32
2018-01-08T16:35:44.342Z,6.40
2018-01-08T16:38:11.903Z,6.30
2018-01-08T16:40:39.502Z,6.25
2018-01-08T16:43:07.032Z,6.22
2018-01-08T16:45:34.677Z,6.27
2018-01-08T16:48:02.387Z,6.17
2018-01-08T16:50:29.933Z,6.11
2018-01-08T16:52:57.482Z,6.10
2018-01-08T16:55:25.022Z,5.92
2018-01-08T16:57:52.548Z,5.88
2018-01-08T17:00:20.084Z,5.89
2018-01-08T17:02:47.637Z,5.82
2018-01-08T17:05:15.248Z,5.59
2018-01-08T17:07:42.772Z,5.43
2018-01-08T17:10:10.309Z,5.36
2018-01-08T17:12:37.852Z,5.18
2018-01-08T17:15:05.395Z,5.01
2018-01-08T17:17:32.928Z,4.90
2018-01-08T17:20:00.479Z,4.81
2018-01-08T17:22:28.060Z,4.91
2018-01-08T17:24:55.712Z,4.79
2018-01-08T17:27:23.263Z,4.70
2018-01-08T17:29:50.797Z,4.61
2018-01-08T17:32:18.448Z,4.55
2018-01-08T17:34:45.978Z,4.49
2018-01-08T17:37:14.093Z,4.41
2018-01-08T17:39:41.629Z,4.36
2018-01-08T17:42:09.319Z,4.26
2018-01-08T17:44:36.876Z,4.19
2018-01-08T17:47:04.449Z,4.14
2018-01-08T17:49:32.014Z,4.10
2018-01-08T17:51:59.543Z,4.00
2018-01-08T17:54:27.153Z,3.64
2018-01-08T17:56:54.678Z,3.63
2018-01-08T17:59:22.204Z,3.72
2018-01-08T18:01:49.747Z,3.70
2018-01-08T18:04:17.298Z,3.70
2018-01-08T18:06:44.823Z,3.68
2018-01-08T18:09:12.392Z,3.53
2018-01-08T18:11:39.923Z,3.35
2018-01-08T18:14:07.463Z,3.22
2018-01-08T18:16:35.026Z,3.06
2018-01-08T18:19:02.590Z,3.10
2018-01-08T18:21:30.149Z,2.99
2018-01-08T18:23:57.737Z,2.87
2018-01-08T18:26:25.311Z,2.92
2018-01-08T18:28:52.954Z,2.88
2018-01-08T18:31:20.504Z,2.82
2018-01-08T18:33:48.053Z,2.80
2018-01-08T18:36:15.624Z,2.73
2018-01-08T18:38:43.164Z,2.68
2018-01-08T18:41:10.728Z,2.74
2018-01-08T18:43:38.334Z,2.58
2018-01-08T18:46:05.899Z,2.35
2018-01-08T18:48:33.428Z,2.31
2018-01-08T18:51:00.973Z,2.31
2018-01-08T18:53:28.509Z,2.38
2018-01-08T18:55:56.056Z,2.37
2018-01-08T18:58:23.646Z,2.30
2018-01-08T19:00:51.188Z,2.20
2018-01-08T19:03:18.735Z,2.20
2018-01-08T19:05:46.259Z,2.18
2018-01-08T19:08:13.811Z,2.27
2018-01-08T19:10:41.558Z,2.01
2018-01-08T19:13:09.088Z,2.03
2018-01-08T19:15:36.681Z,1.98
2018-01-08T19:18:04.252Z,1.64
2018-01-08T19:20:31.786Z,1.58
2018-01-08T19:22:59.593Z,1.59
2018-01-08T19:25:27.163Z,1.60
2018-01-08T19:27:54.778Z,1.62
2018-01-08T19:30:22.433Z,1.62
2018-01-08T19:32:50.009Z,1.81
2018-01-08T19:35:17.554Z,1.82
2018-01-08T19:37:45.096Z,1.73
2018-01-08T19:40:12.645Z,1.52
2018-01-08T19:42:40.192Z,1.41
2018-01-08T19:45:07.732Z,1.46
2018-01-08T19:47:35.365Z,1.36
2018-01-08T19:50:03.040Z,1.34
2018-01-08T19:52:30.623Z,1.33
2018-01-08T19:54:58.278Z,1.20
2018-01-08T19:57:25.885Z,1.21
2018-01-08T19:59:53.452Z,1.31
2018-01-08T20:02:21.003Z,1.41
2018-01-08T20:04:48.579Z,1.42
2018-01-08T20:07:16.174Z,1.12
2018-01-08T20:09:43.799Z,0.99
2018-01-08T20:12:12.019Z,1.04
2018-01-08T20:14:39.552Z,0.98
2018-01-08T20:17:07.207Z,0.80
2018-01-08T20:19:36.578Z,0.86
2018-01-08T20:22:04.412Z,0.84
2018-01-08T20:24:32.033Z,0.79
2018-01-08T20:26:59.573Z,0.84
2018-01-08T20:29:27.284Z,0.88
2018-01-08T20:31:54.904Z,0.98
2018-01-08T20:34:22.541Z,1.06
2018-01-08T20:36:50.116Z,1.05
2018-01-08T20:39:17.669Z,0.97
2018-01-08T20:41:45.205Z,0.74
2018-01-08T20:44:12.797Z,0.47
2018-01-08T20:46:40.348Z,0.46
2018-01-08T20:49:07.913Z,0.51
2018-01-08T20:51:35.469Z,0.62
2018-01-08T20:54:03.079Z,0.73
2018-01-08T20:56:30.664Z,0.67
2018-01-08T20:58:58.233Z,0.86
2018-01-08T21:01:26.074Z,0.61
2018-01-08T21:03:53.633Z,0.45
2018-01-08T21:06:21.293Z,0.43
2018-01-08T21:08:49.123Z,0.55
2018-01-08T21:11:16.728Z,0.59
2018-01-08T21:13:44.288Z,0.57
2018-01-08T21:16:11.848Z,0.53
2018-01-08T21:18:39.409Z,0.66
2018-01-08T21:21:06.989Z,0.52
2018-01-08T21:23:34.568Z,0.47
2018-01-08T21:26:02.110Z,0.46
2018-01-08T21:28:29.664Z,0.45
2018-01-08T21:30:57.240Z,0.50
2018-01-08T21:33:24.803Z,0.24
2018-01-08T21:35:52.372Z,0.02
2018-01-08T21:38:20.023Z,0.08
2018-01-08T21:40:47.558Z,0.11
2018-01-08T21:43:15.090Z,0.25
2018-01-08T21:45:42.655Z,0.28
2018-01-08T21:48:10.184Z,0.54
2018-01-08T21:50:37.737Z,0.30
2018-01-08T21:53:05.274Z,0.14
2018-01-08T21:55:32.979Z,0.25
2018-01-08T21:58:00.504Z,0.30
2018-01-08T22:00:28.063Z,0.22
2018-01-08T22:02:55.598Z,0.26
2018-01-08T22:05:23.173Z,0.13
2018-01-08T22:07:50.754Z,0.17
2018-01-08T22:10:18.303Z,0.13
2018-01-08T22:12:45.833Z,0.22
2018-01-08T22:15:13.372Z,-0.13
2018-01-08T22:17:40.914Z,-0.26
2018-01-08T22:20:08.482Z,-0.13
2018-01-08T22:22:36.053Z,-0.15
2018-01-08T22:25:03.603Z,-0.15
2018-01-08T22:27:31.166Z,-0.21
2018-01-08T22:29:58.796Z,-0.15
2018-01-08T22:32:26.336Z,-0.11
2018-01-08T22:34:54.884Z,-0.08
2018-01-08T22:37:22.468Z,-0.03
2018-01-08T22:39:49.998Z,-0.15
2018-01-08T22:42:17.675Z,-0.55
2018-01-08T22:44:45.232Z,-0.49
2018-01-08T22:47:12.784Z,-0.39
2018-01-08T22:49:40.438Z,-0.28
2018-01-08T22:52:08.074Z,0.02
2018-01-08T22:54:35.603Z,0.10
2018-01-08T22:57:03.199Z,-0.08
2018-01-08T22:59:30.819Z,-0.11
2018-01-08T23:08:44.393Z,-0.24
2018-01-08T23:11:11.928Z,-0.19
2018-01-08T23:13:39.660Z,-0.16
2018-01-08T23:16:07.212Z,-0.17
2018-01-08T23:18:34.759Z,-0.22
2018-01-08T23:21:02.344Z,-0.22
2018-01-08T23:23:29.923Z,-0.08
2018-01-08T23:25:57.537Z,-0.09
2018-01-08T23:28:25.238Z,0.03
2018-01-08T23:30:52.800Z,-0.17
2018-01-08T23:33:20.388Z,-0.09
2018-01-08T23:35:47.923Z,-0.20
2018-01-08T23:38:15.464Z,-0.11
2018-01-08T23:40:43.024Z,-0.03
2018-01-08T23:43:10.563Z,-0.03
2018-01-08T23:45:38.163Z,0.06
2018-01-08T23:48:05.718Z,-0.11
2018-01-08T23:50:33.289Z,0.00
2018-01-08T23:53:00.885Z,-0.03
2018-01-08T23:55:28.456Z,-0.21
2018-01-08T23:57:56.008Z,-0.08
